Terminal Aerodrome Forecast
Issued by NWS

Home | Current Version | Previous Version | Graphics & Text | Print | Product List | Glossary On
Versions: 1 2 3 4 5 6 7 8 9 10 11 12 13 14 15 16 17 18 19 20 21 22 23 24
000
FTUS43 KLOT 191734
TAFDPA
TAF
KDPA 191734Z 1918/2018 28012G20KT P6SM VCSH BKN050 BKN080
      TEMPO 1918/1921 3SM -TSRA BKN050CB
     FM192300 29014G20KT P6SM BKN050
     FM200100 26006KT P6SM SCT050
     FM201600 29010KT P6SM BKN100=

USA.gov is the U.S. government's official web portal to all federal, state and local government web resources and services.